Time;durP1;ratioP1;P1;durP2;ratioP2;P2;SDS_P1;SDS_P2;PMS_P1;PMS_P2;Temp;Humidity;BMP_temperature;BMP_pressure;BME280_temperature;BME280_humidity;BME280_pressure;Samples;Min_cycle;Max_cycle;Signal;HPM_P1;HPM_P2
2021/12/18 00:01:34;;;;;;;33.10;13.55;;;4.90;99.90;;;;;;5098658;28;20099;-49
2021/12/18 00:04:01;;;;;;;32.63;11.35;;;4.80;99.90;;;;;;5098435;28;20028;-49
2021/12/18 00:06:27;;;;;;;27.95;11.73;;;4.80;99.90;;;;;;5098362;28;20024;-49
2021/12/18 00:08:55;;;;;;;23.17;11.15;;;4.80;99.90;;;;;;5098468;28;20161;-49
2021/12/18 00:11:21;;;;;;;22.85;9.98;;;4.80;99.90;;;;;;5098160;28;20024;-49
2021/12/18 00:13:48;;;;;;;17.70;8.57;;;4.80;99.90;;;;;;5098347;28;20434;-49
2021/12/18 00:16:14;;;;;;;20.48;8.50;;;4.80;99.90;;;;;;5098182;28;20114;-49
2021/12/18 00:18:40;;;;;;;16.30;7.85;;;4.80;99.90;;;;;;5098110;28;20066;-49
2021/12/18 00:21:07;;;;;;;18.33;8.27;;;4.70;99.90;;;;;;5097889;28;20032;-49
2021/12/18 00:23:33;;;;;;;14.52;7.13;;;4.80;99.90;;;;;;5098069;28;20111;-49
2021/12/18 00:25:59;;;;;;;16.55;7.50;;;4.90;99.90;;;;;;5097821;28;20031;-50
2021/12/18 00:28:25;;;;;;;21.48;8.15;;;4.70;99.90;;;;;;5097953;28;20082;-49
2021/12/18 00:30:51;;;;;;;23.10;8.68;;;4.80;99.90;;;;;;5098103;28;20032;-50
2021/12/18 00:33:17;;;;;;;16.50;8.50;;;4.80;99.90;;;;;;5097767;28;20026;-49
2021/12/18 00:35:44;;;;;;;13.63;7.65;;;4.80;99.90;;;;;;5097795;28;20086;-50
2021/12/18 00:38:10;;;;;;;21.83;8.18;;;4.80;99.90;;;;;;5097687;28;20443;-49
2021/12/18 00:41:10;;;;;;;20.55;7.88;;;4.70;99.90;;;;;;5097623;28;20082;-50
2021/12/18 00:43:40;;;;;;;14.25;7.32;;;4.70;99.90;;;;;;5097510;28;20081;-49
2021/12/18 00:46:07;;;;;;;19.52;8.48;;;4.80;99.90;;;;;;5097258;28;20024;-49
2021/12/18 00:48:33;;;;;;;16.08;7.95;;;4.70;99.90;;;;;;5097654;28;20024;-49
2021/12/18 00:50:59;;;;;;;14.93;7.03;;;4.70;99.90;;;;;;5097634;28;20146;-49
2021/12/18 00:53:25;;;;;;;17.20;8.60;;;4.70;99.90;;;;;;5097473;28;20047;-49
2021/12/18 00:55:52;;;;;;;16.65;7.60;;;4.70;99.90;;;;;;5097387;28;20028;-49
2021/12/18 00:58:18;;;;;;;16.40;7.80;;;4.80;99.90;;;;;;5097412;28;20028;-49
2021/12/18 01:00:46;;;;;;;15.13;7.72;;;4.70;99.90;;;;;;5097356;28;20070;-49
2021/12/18 01:03:18;;;;;;;20.05;8.82;;;4.70;99.90;;;;;;5097243;28;20059;-49
2021/12/18 01:05:46;;;;;;;18.38;8.95;;;4.60;99.90;;;;;;5096571;28;20039;-49
2021/12/18 01:08:12;;;;;;;16.23;7.22;;;4.50;99.90;;;;;;5097186;28;20032;-49
2021/12/18 01:11:20;;;;;;;22.02;8.75;;;4.50;99.90;;;;;;5097163;28;20024;-49
2021/12/18 01:14:04;;;;;;;16.77;8.02;;;4.50;99.90;;;;;;5076685;28;20071;-50
2021/12/18 01:16:39;;;;;;;21.40;8.02;;;4.50;99.90;;;;;;5076535;28;20098;-49
2021/12/18 01:24:49;;;;;;;21.35;8.23;;;4.40;99.90;;;;;;5042330;28;20048;-49
2021/12/18 01:27:15;;;;;;;16.75;8.88;;;4.50;99.90;;;;;;5076762;28;20021;-49
2021/12/18 01:29:41;;;;;;;13.63;7.55;;;4.40;99.90;;;;;;5076604;28;20419;-49
2021/12/18 01:32:07;;;;;;;15.23;8.35;;;4.40;99.90;;;;;;5076444;28;20052;-49
2021/12/18 01:34:33;;;;;;;14.63;8.40;;;4.30;99.90;;;;;;5076654;28;20078;-49
2021/12/18 01:37:00;;;;;;;18.42;8.48;;;4.30;99.90;;;;;;5076500;28;20067;-49
2021/12/18 01:39:26;;;;;;;16.10;8.60;;;4.30;99.90;;;;;;5076350;28;20043;-49
2021/12/18 01:42:51;;;;;;;23.33;9.25;;;4.20;99.90;;;;;;5076304;28;20033;-49
2021/12/18 01:52:37;;;;;;;20.80;7.47;;;4.30;99.90;;;;;;5075945;28;20119;-50
2021/12/18 01:55:03;;;;;;;17.05;7.10;;;4.20;99.90;;;;;;5075933;28;20516;-49
2021/12/18 01:57:31;;;;;;;15.77;7.93;;;4.20;99.90;;;;;;5076078;28;20123;-49
2021/12/18 01:59:57;;;;;;;15.23;7.32;;;4.20;99.90;;;;;;5076017;28;20496;-50
2021/12/18 02:02:24;;;;;;;17.60;7.78;;;4.20;99.90;;;;;;5075723;28;20033;-49
2021/12/18 02:04:50;;;;;;;15.20;7.18;;;4.10;99.90;;;;;;5075884;28;20108;-50
2021/12/18 02:07:16;;;;;;;15.95;7.88;;;4.10;99.90;;;;;;5075598;28;20119;-49
2021/12/18 02:12:20;;;;;;;15.48;8.65;;;4.10;99.90;;;;;;5084194;28;20028;-49
2021/12/18 02:22:50;;;;;;;15.07;8.38;;;4.00;99.90;;;;;;5095968;28;20119;-49
2021/12/18 02:25:16;;;;;;;17.23;7.93;;;4.00;99.90;;;;;;5095678;28;20458;-49
2021/12/18 02:27:42;;;;;;;16.33;7.93;;;3.90;99.90;;;;;;5095670;28;20032;-49
2021/12/18 02:30:11;;;;;;;17.85;7.88;;;3.90;99.90;;;;;;5095696;28;20082;-49
2021/12/18 02:32:37;;;;;;;14.57;7.75;;;3.90;99.90;;;;;;5095683;28;20384;-49
2021/12/18 02:35:05;;;;;;;16.17;8.18;;;3.90;99.90;;;;;;5094342;28;20024;-49
2021/12/18 02:37:38;;;;;;;14.27;7.65;;;3.80;99.90;;;;;;5095857;28;20040;-49
2021/12/18 02:42:34;;;;;;;19.17;7.80;;;3.80;99.90;;;;;;5095433;28;20043;-49
2021/12/18 02:45:02;;;;;;;20.17;8.48;;;3.80;99.90;;;;;;5095374;28;20080;-49
2021/12/18 02:47:28;;;;;;;15.90;7.97;;;3.70;99.90;;;;;;5095478;28;20056;-49
2021/12/18 02:49:54;;;;;;;14.65;7.30;;;3.80;99.90;;;;;;5095373;28;20023;-49
2021/12/18 02:52:30;;;;;;;14.18;7.90;;;3.80;99.90;;;;;;5101882;28;20044;-49
2021/12/18 02:54:56;;;;;;;15.55;8.60;;;3.80;99.90;;;;;;5115633;28;20084;-49
2021/12/18 02:57:22;;;;;;;19.23;8.27;;;3.80;99.90;;;;;;5115490;28;20046;-49
2021/12/18 02:59:51;;;;;;;14.43;7.63;;;3.80;99.90;;;;;;5115545;28;20499;-49
2021/12/18 03:02:19;;;;;;;16.52;7.63;;;3.70;99.90;;;;;;5115531;28;20110;-49
2021/12/18 03:04:50;;;;;;;17.63;8.50;;;3.70;99.90;;;;;;5115328;28;20027;-49
2021/12/18 03:07:18;;;;;;;18.10;8.00;;;3.70;99.90;;;;;;5115372;28;20026;-49
2021/12/18 03:25:33;;;;;;;17.27;8.10;;;3.60;99.90;;;;;;5115007;28;20028;-49
2021/12/18 03:28:02;;;;;;;15.40;8.27;;;3.60;99.90;;;;;;5114865;28;20046;-49
2021/12/18 03:30:28;;;;;;;17.05;8.02;;;3.60;99.90;;;;;;5115062;28;20050;-49
2021/12/18 03:32:54;;;;;;;15.48;7.97;;;3.60;99.90;;;;;;5114921;28;20031;-49
2021/12/18 03:35:21;;;;;;;15.32;7.22;;;3.60;99.90;;;;;;5114925;28;20035;-49
2021/12/18 03:37:48;;;;;;;15.32;8.63;;;3.50;99.90;;;;;;5114978;28;20488;-49
2021/12/18 03:40:19;;;;;;;16.90;8.40;;;3.50;99.90;;;;;;5114925;28;20023;-49
2021/12/18 03:42:46;;;;;;;15.43;7.65;;;3.50;99.90;;;;;;5114675;28;20035;-49
2021/12/18 03:45:13;;;;;;;13.95;7.25;;;3.50;99.90;;;;;;5114711;28;20438;-49
2021/12/18 03:47:39;;;;;;;15.50;8.20;;;3.50;99.90;;;;;;5114773;28;20031;-49
2021/12/18 03:50:06;;;;;;;15.98;8.55;;;3.50;99.90;;;;;;5114840;28;20019;-49
2021/12/18 03:52:32;;;;;;;15.70;8.75;;;3.50;99.90;;;;;;5114625;28;20101;-49
2021/12/18 03:55:01;;;;;;;16.58;7.95;;;3.50;99.90;;;;;;5114811;28;20028;-49
2021/12/18 03:57:27;;;;;;;15.40;8.60;;;3.50;99.90;;;;;;5114954;28;20453;-49
2021/12/18 03:59:53;;;;;;;17.92;8.60;;;3.50;99.90;;;;;;5114593;28;20031;-49
2021/12/18 04:02:19;;;;;;;18.67;9.25;;;3.50;99.90;;;;;;5114632;28;20027;-49
2021/12/18 04:04:45;;;;;;;14.35;8.18;;;3.50;99.90;;;;;;5114701;28;20529;-49
2021/12/18 04:07:12;;;;;;;13.93;7.68;;;3.40;99.90;;;;;;5114475;28;20043;-49
2021/12/18 04:09:38;;;;;;;21.38;8.75;;;3.50;99.90;;;;;;5114621;28;20020;-49
2021/12/18 04:12:05;;;;;;;18.00;8.43;;;3.50;99.90;;;;;;5107917;28;20100;-49
2021/12/18 04:14:31;;;;;;;14.77;8.10;;;3.50;99.90;;;;;;5094187;28;20394;-49
2021/12/18 04:16:57;;;;;;;13.30;7.80;;;3.50;99.90;;;;;;5097803;28;20016;-49
2021/12/18 04:19:23;;;;;;;14.88;7.90;;;3.50;99.90;;;;;;5114551;28;20023;-49
2021/12/18 04:21:49;;;;;;;16.88;7.50;;;3.60;99.90;;;;;;5114399;28;20458;-49
2021/12/18 04:24:15;;;;;;;14.48;7.57;;;3.60;99.90;;;;;;5114609;28;20420;-49
2021/12/18 04:26:42;;;;;;;17.60;7.85;;;3.60;99.90;;;;;;5114427;28;20413;-49
2021/12/18 04:29:08;;;;;;;17.48;7.95;;;3.40;99.90;;;;;;5114382;28;20034;-49
2021/12/18 04:31:35;;;;;;;15.55;8.15;;;3.50;99.90;;;;;;5114492;28;20019;-49
2021/12/18 04:34:03;;;;;;;16.17;7.57;;;3.60;99.90;;;;;;5114370;28;20043;-49
2021/12/18 04:36:29;;;;;;;18.38;8.55;;;3.60;99.90;;;;;;5114385;28;20034;-49
2021/12/18 04:38:55;;;;;;;14.88;7.95;;;3.60;99.90;;;;;;5114700;28;20035;-49
2021/12/18 04:41:36;;;;;;;18.98;8.27;;;3.60;99.90;;;;;;5117128;28;20038;-49
2021/12/18 04:44:03;;;;;;;;;;;3.60;99.90;;;;;;5118398;28;20076;-49
2021/12/18 04:46:29;;;;;;;14.30;7.18;;;3.60;99.90;;;;;;5117961;28;19976;-49
2021/12/18 04:48:55;;;;;;;14.85;7.85;;;3.70;99.90;;;;;;5118155;28;20031;-50
2021/12/18 04:51:21;;;;;;;18.63;8.30;;;3.70;99.90;;;;;;5117843;28;20104;-49
2021/12/18 04:53:47;;;;;;;17.48;8.35;;;3.60;99.90;;;;;;5117779;28;20040;-49
2021/12/18 04:56:13;;;;;;;19.20;8.48;;;3.60;99.90;;;;;;5118163;28;20050;-49
2021/12/18 04:58:39;;;;;;;16.25;7.80;;;3.60;99.90;;;;;;5117724;28;20036;-49
2021/12/18 05:01:05;;;;;;;18.90;8.43;;;3.60;99.90;;;;;;5117822;28;20115;-49
2021/12/18 05:03:31;;;;;;;15.32;7.80;;;3.70;99.90;;;;;;5117664;28;20059;-50
2021/12/18 05:06:02;;;;;;;20.77;9.02;;;3.70;99.90;;;;;;5117809;28;20031;-50
2021/12/18 05:08:28;;;;;;;19.15;8.52;;;3.70;99.90;;;;;;5117796;28;20034;-49
2021/12/18 05:10:55;;;;;;;14.23;8.43;;;3.60;99.90;;;;;;5117591;28;20031;-49
2021/12/18 05:13:21;;;;;;;17.08;8.70;;;3.70;99.90;;;;;;5100167;28;20028;-49
2021/12/18 05:15:47;;;;;;;17.35;8.02;;;3.70;99.90;;;;;;5097189;28;20021;-49
2021/12/18 05:18:13;;;;;;;15.68;8.82;;;3.70;99.90;;;;;;5111024;28;20084;-49
2021/12/18 05:20:39;;;;;;;17.15;8.70;;;3.70;99.90;;;;;;5117485;28;20041;-50
2021/12/18 05:23:05;;;;;;;17.73;8.88;;;3.70;99.90;;;;;;5117296;28;20103;-50
2021/12/18 05:25:31;;;;;;;13.23;7.70;;;3.70;99.90;;;;;;5117236;28;20384;-49
2021/12/18 05:27:57;;;;;;;14.23;8.82;;;3.70;99.90;;;;;;5117283;28;20027;-50
2021/12/18 05:30:23;;;;;;;18.67;8.63;;;3.70;99.90;;;;;;5117074;28;20027;-50
2021/12/18 05:32:49;;;;;;;18.27;9.25;;;3.70;99.90;;;;;;5117091;28;20036;-50
2021/12/18 05:35:16;;;;;;;22.27;9.88;;;3.80;99.90;;;;;;5117222;28;20085;-49
2021/12/18 05:40:14;;;;;;;20.52;10.85;;;3.70;99.90;;;;;;5117040;28;20028;-49
2021/12/18 05:42:39;;;;;;;25.88;13.20;;;3.70;99.90;;;;;;5117146;28;20027;-49
2021/12/18 05:45:07;;;;;;;22.50;11.68;;;3.70;99.90;;;;;;5116736;28;20030;-50
2021/12/18 05:47:34;;;;;;;24.63;12.77;;;3.80;99.90;;;;;;5116893;28;20080;-50
2021/12/18 05:50:00;;;;;;;23.63;10.70;;;3.70;99.90;;;;;;5098642;28;20302;-50
2021/12/18 05:52:26;;;;;;;19.95;9.90;;;3.80;99.90;;;;;;5116530;28;20408;-50
2021/12/18 05:54:52;;;;;;;18.88;10.13;;;3.70;99.90;;;;;;5116806;28;20019;-50
2021/12/18 05:57:18;;;;;;;17.73;9.60;;;3.70;99.90;;;;;;5116727;28;20024;-50
2021/12/18 05:59:44;;;;;;;19.23;9.48;;;3.80;99.90;;;;;;5116643;28;20035;-50
2021/12/18 06:02:10;;;;;;;17.50;10.00;;;3.80;99.90;;;;;;5116636;28;20541;-50
2021/12/18 06:04:36;;;;;;;18.17;8.75;;;3.70;99.90;;;;;;5116517;28;20028;-50
2021/12/18 06:07:05;;;;;;;16.15;8.23;;;3.70;99.90;;;;;;5116353;28;20523;-50
2021/12/18 06:09:35;;;;;;;21.65;10.18;;;3.70;99.90;;;;;;5116465;28;20031;-50
2021/12/18 06:12:02;;;;;;;22.90;13.18;;;3.60;99.90;;;;;;5110116;28;20024;-50
2021/12/18 06:14:29;;;;;;;15.90;9.05;;;3.70;99.90;;;;;;5095966;28;20035;-49
2021/12/18 06:16:55;;;;;;;22.40;12.02;;;3.60;99.90;;;;;;5099048;28;20039;-50
2021/12/18 06:19:21;;;;;;;28.52;13.23;;;3.60;99.90;;;;;;5116125;28;20080;-50
2021/12/18 06:21:47;;;;;;;19.38;9.20;;;3.60;99.90;;;;;;5116296;28;20023;-50
2021/12/18 06:24:13;;;;;;;26.15;11.25;;;3.60;99.90;;;;;;5116064;28;20039;-50
2021/12/18 06:26:39;;;;;;;21.98;10.32;;;3.60;99.90;;;;;;5116053;28;20044;-50
2021/12/18 06:29:05;;;;;;;27.88;15.20;;;3.70;99.90;;;;;;5116055;28;20027;-50
2021/12/18 06:31:34;;;;;;;20.45;12.10;;;3.70;99.90;;;;;;5116084;28;20043;-50
2021/12/18 06:34:00;;;;;;;17.05;8.93;;;3.70;99.90;;;;;;5115869;28;20477;-50
2021/12/18 06:36:26;;;;;;;21.55;9.73;;;3.70;99.90;;;;;;5116122;28;20053;-50
2021/12/18 06:38:52;;;;;;;21.38;9.25;;;3.70;99.90;;;;;;5115833;28;20020;-50
2021/12/18 06:41:18;;;;;;;18.60;9.25;;;3.60;99.90;;;;;;5115883;28;20066;-49
2021/12/18 06:43:44;;;;;;;18.70;9.40;;;3.60;99.90;;;;;;5115560;28;20035;-50
2021/12/18 06:46:09;;;;;;;22.35;10.52;;;3.60;99.90;;;;;;5115835;28;20042;-50
2021/12/18 06:48:35;;;;;;;17.25;9.07;;;3.70;99.90;;;;;;5115625;28;20027;-49
2021/12/18 06:51:02;;;;;;;19.55;8.63;;;3.80;99.90;;;;;;5115823;28;20061;-49
2021/12/18 06:53:29;;;;;;;21.10;9.43;;;3.80;99.90;;;;;;5115633;28;20054;-50
2021/12/18 06:55:55;;;;;;;17.48;9.73;;;3.80;99.90;;;;;;5115486;28;20057;-50
2021/12/18 06:58:21;;;;;;;21.58;10.63;;;3.80;99.90;;;;;;5115477;28;20024;-50
2021/12/18 07:00:48;;;;;;;17.48;8.80;;;3.80;99.90;;;;;;5115507;28;20115;-50
2021/12/18 07:03:14;;;;;;;18.52;8.63;;;3.80;99.90;;;;;;5114906;28;20035;-50
2021/12/18 07:05:40;;;;;;;18.08;8.45;;;3.80;99.90;;;;;;5115448;28;20031;-50
2021/12/18 07:08:06;;;;;;;15.95;8.32;;;3.90;99.90;;;;;;5115262;28;20571;-50
2021/12/18 07:10:32;;;;;;;19.08;8.20;;;3.90;99.90;;;;;;5115243;28;20499;-50
2021/12/18 07:12:59;;;;;;;20.42;8.57;;;3.90;99.90;;;;;;5100816;28;20024;-49
2021/12/18 07:15:25;;;;;;;85.80;29.65;;;3.80;99.90;;;;;;5094923;28;20501;-50
2021/12/18 07:17:50;;;;;;;27.38;11.32;;;3.80;99.90;;;;;;5105618;28;20084;-50
2021/12/18 07:20:17;;;;;;;26.08;9.85;;;3.80;99.90;;;;;;5115182;28;20095;-50
2021/12/18 07:22:43;;;;;;;17.85;8.07;;;3.90;99.90;;;;;;5115147;28;20063;-50
2021/12/18 07:25:10;;;;;;;19.27;9.38;;;3.90;99.90;;;;;;5115088;28;20035;-50
2021/12/18 07:27:36;;;;;;;18.60;10.13;;;3.90;99.90;;;;;;5115000;28;20553;-50
2021/12/18 07:30:03;;;;;;;21.80;10.70;;;3.90;99.90;;;;;;5115094;28;20093;-50
2021/12/18 07:32:29;;;;;;;19.92;11.48;;;4.00;99.90;;;;;;5114795;28;20053;-50
2021/12/18 07:34:56;;;;;;;25.98;13.45;;;4.00;99.90;;;;;;5115138;28;20114;-50
2021/12/18 07:37:24;;;;;;;31.25;14.65;;;4.00;99.90;;;;;;5115103;28;20020;-49
2021/12/18 07:39:51;;;;;;;27.08;13.40;;;3.90;99.90;;;;;;5114878;28;20039;-50
2021/12/18 07:42:17;;;;;;;20.95;10.38;;;4.00;99.90;;;;;;5114977;28;20034;-49
2021/12/18 07:44:43;;;;;;;20.58;10.50;;;4.00;99.90;;;;;;5114661;28;20035;-50
2021/12/18 07:47:09;;;;;;;25.02;11.52;;;4.00;99.90;;;;;;5114765;28;20034;-50
2021/12/18 07:49:35;;;;;;;19.77;10.00;;;4.00;99.90;;;;;;5114918;28;20030;-51
2021/12/18 07:52:04;;;;;;;18.17;9.98;;;4.10;99.90;;;;;;5114552;28;20050;-51
2021/12/18 07:54:30;;;;;;;26.85;12.75;;;4.10;99.90;;;;;;5114679;28;20020;-51
2021/12/18 07:56:56;;;;;;;21.55;10.05;;;4.00;99.90;;;;;;5114740;28;20061;-51
2021/12/18 07:59:22;;;;;;;23.00;10.63;;;4.00;99.90;;;;;;5114689;28;20027;-51
2021/12/18 08:01:48;;;;;;;16.42;9.05;;;4.10;99.90;;;;;;5114782;28;20393;-51
2021/12/18 08:04:14;;;;;;;18.48;9.98;;;4.10;99.90;;;;;;5114725;28;20077;-51
2021/12/18 08:06:40;;;;;;;23.58;11.60;;;4.10;99.90;;;;;;5114709;28;20031;-51
2021/12/18 08:09:06;;;;;;;19.10;9.52;;;4.10;99.90;;;;;;5114546;28;20028;-51
2021/12/18 08:11:32;;;;;;;22.67;10.10;;;4.10;99.90;;;;;;5112506;28;20027;-51
2021/12/18 08:13:58;;;;;;;20.67;9.52;;;4.10;99.90;;;;;;5094135;28;20389;-51
2021/12/18 08:16:24;;;;;;;24.23;11.88;;;4.20;99.90;;;;;;5097630;28;20027;-51
2021/12/18 08:18:50;;;;;;;15.82;8.25;;;4.20;99.90;;;;;;5117185;28;20643;-51
2021/12/18 08:21:16;;;;;;;22.13;10.27;;;4.20;99.90;;;;;;5118634;28;20016;-51
2021/12/18 08:23:42;;;;;;;20.73;11.63;;;4.20;99.90;;;;;;5118351;28;20039;-51
2021/12/18 08:26:08;;;;;;;28.98;11.82;;;4.20;99.90;;;;;;5118522;28;20062;-51
2021/12/18 08:28:34;;;;;;;15.40;8.68;;;4.30;99.90;;;;;;5118283;28;20027;-51
2021/12/18 08:31:00;;;;;;;17.88;9.57;;;4.20;99.90;;;;;;5118454;28;20481;-51
2021/12/18 08:33:26;;;;;;;24.75;10.98;;;4.20;99.90;;;;;;5118450;28;20031;-51
2021/12/18 08:35:52;;;;;;;21.27;10.73;;;4.30;99.90;;;;;;5118230;28;20421;-51
2021/12/18 08:38:18;;;;;;;51.67;24.58;;;4.40;99.90;;;;;;5118393;28;20408;-51
2021/12/18 08:40:45;;;;;;;34.72;17.08;;;4.30;99.90;;;;;;5118373;28;20038;-51
2021/12/18 08:43:11;;;;;;;62.42;32.25;;;4.30;99.90;;;;;;5117899;28;20465;-51
2021/12/18 08:45:38;;;;;;;25.50;12.90;;;4.50;99.90;;;;;;5118282;28;20106;-51
2021/12/18 08:48:04;;;;;;;171.68;76.75;;;4.40;99.90;;;;;;5117909;28;20031;-51
2021/12/18 08:50:30;;;;;;;76.82;37.00;;;4.40;99.90;;;;;;5118101;28;20027;-51
2021/12/18 08:52:56;;;;;;;142.13;66.45;;;4.50;99.90;;;;;;5117879;28;20097;-51
2021/12/18 08:55:23;;;;;;;71.95;33.90;;;4.50;99.90;;;;;;5117934;28;20020;-51
2021/12/18 08:57:52;;;;;;;20.45;9.88;;;4.60;99.90;;;;;;5117777;28;20047;-51
2021/12/18 09:00:21;;;;;;;20.63;9.57;;;4.60;99.90;;;;;;5117976;28;20035;-51
2021/12/18 09:02:51;;;;;;;23.05;10.43;;;4.70;99.90;;;;;;5118038;28;20427;-51
2021/12/18 09:05:17;;;;;;;26.25;12.52;;;4.80;99.90;;;;;;5117656;28;20111;-51
2021/12/18 09:07:44;;;;;;;18.65;11.13;;;4.90;99.90;;;;;;5117780;28;20122;-51
2021/12/18 09:10:10;;;;;;;35.55;13.52;;;5.00;99.90;;;;;;5117640;28;20019;-51
2021/12/18 09:12:37;;;;;;;22.70;10.43;;;5.10;99.90;;;;;;5106448;28;20983;-51
2021/12/18 09:15:04;;;;;;;21.63;10.13;;;5.10;99.90;;;;;;5097015;28;20441;-51
2021/12/18 09:17:30;;;;;;;17.17;7.95;;;5.10;99.90;;;;;;5105259;28;20031;-51
2021/12/18 09:19:56;;;;;;;17.70;8.32;;;5.10;99.90;;;;;;5117438;28;20145;-51
2021/12/18 09:22:22;;;;;;;15.82;8.90;;;5.10;99.90;;;;;;5117403;28;20092;-51
2021/12/18 09:24:48;;;;;;;16.33;8.93;;;5.10;99.90;;;;;;5117089;28;20118;-51
2021/12/18 09:27:15;;;;;;;33.63;11.30;;;5.10;99.90;;;;;;5116830;28;20102;-51
2021/12/18 09:29:41;;;;;;;18.58;9.15;;;5.20;99.90;;;;;;5117351;28;20041;-51
2021/12/18 09:32:07;;;;;;;25.95;9.88;;;5.30;99.90;;;;;;5117150;28;20059;-51
2021/12/18 09:34:34;;;;;;;22.65;10.73;;;5.40;99.90;;;;;;5117179;28;20037;-51
2021/12/18 09:37:01;;;;;;;19.23;9.35;;;5.30;99.90;;;;;;5117195;28;20092;-51
2021/12/18 09:39:27;;;;;;;18.38;9.13;;;5.40;99.90;;;;;;5117013;28;20024;-51
2021/12/18 09:41:54;;;;;;;18.20;8.60;;;5.40;99.90;;;;;;5117002;28;20106;-51
2021/12/18 09:44:24;;;;;;;17.83;8.90;;;5.50;99.90;;;;;;5116987;28;20024;-51
2021/12/18 09:46:51;;;;;;;15.35;7.95;;;5.40;99.90;;;;;;5116799;28;20572;-51
2021/12/18 09:49:17;;;;;;;30.55;11.88;;;5.50;99.90;;;;;;5116900;28;20100;-51
2021/12/18 09:51:43;;;;;;;20.52;10.15;;;5.50;99.90;;;;;;5117086;28;20051;-51
2021/12/18 09:54:09;;;;;;;17.83;8.73;;;5.50;99.90;;;;;;5116767;28;20312;-51
2021/12/18 09:56:35;;;;;;;20.20;13.27;;;5.40;99.90;;;;;;5116606;28;20038;-51
2021/12/18 09:59:01;;;;;;;17.25;9.65;;;5.40;99.90;;;;;;5116740;28;20477;-51
2021/12/18 10:01:27;;;;;;;19.90;9.55;;;5.50;99.90;;;;;;5116650;28;20024;-51
2021/12/18 10:03:58;;;;;;;17.67;9.90;;;5.50;99.90;;;;;;5116507;28;20124;-51
2021/12/18 10:06:38;;;;;;;19.25;9.68;;;5.50;99.90;;;;;;5116493;28;20028;-51
2021/12/18 10:09:07;;;;;;;19.10;9.87;;;5.60;99.90;;;;;;5116309;28;20465;-51
2021/12/18 10:11:34;;;;;;;21.55;9.48;;;5.70;99.90;;;;;;5114120;28;20726;-51
2021/12/18 10:14:03;;;;;;;19.25;9.02;;;5.90;99.90;;;;;;5096017;28;20365;-51
2021/12/18 10:16:30;;;;;;;20.15;9.65;;;5.90;99.90;;;;;;5096078;28;20099;-51
2021/12/18 10:18:58;;;;;;;22.58;8.30;;;6.00;99.90;;;;;;5115964;28;20076;-51
2021/12/18 10:21:27;;;;;;;24.60;10.48;;;6.10;99.90;;;;;;5116253;28;20024;-51
2021/12/18 10:23:55;;;;;;;19.38;9.43;;;6.20;99.90;;;;;;5116249;28;20028;-51
2021/12/18 10:26:34;;;;;;;12.52;8.13;;;6.20;99.90;;;;;;5115952;28;20028;-51
2021/12/18 10:29:01;;;;;;;15.98;8.65;;;6.00;99.90;;;;;;5116117;28;20024;-51
2021/12/18 10:31:45;;;;;;;22.00;10.02;;;6.10;99.90;;;;;;5115956;28;20029;-51
2021/12/18 10:34:26;;;;;;;17.85;9.60;;;6.20;99.90;;;;;;5116002;28;20031;-51
2021/12/18 10:37:19;;;;;;;23.42;10.85;;;6.30;99.90;;;;;;5115882;28;20039;-52
2021/12/18 10:39:51;;;;;;;25.77;12.80;;;6.40;99.90;;;;;;5115552;28;20031;-49
2021/12/18 10:42:22;;;;;;;18.67;10.38;;;6.40;99.90;;;;;;5116105;28;20085;-49
2021/12/18 10:44:54;;;;;;;23.05;11.00;;;6.50;99.90;;;;;;5115620;28;20435;-49
2021/12/18 10:47:20;;;;;;;34.33;12.80;;;6.60;99.90;;;;;;5115188;28;20146;-49
2021/12/18 10:49:46;;;;;;;19.55;9.77;;;6.50;99.90;;;;;;5115864;28;20094;-49
2021/12/18 10:52:12;;;;;;;18.83;10.13;;;6.60;99.90;;;;;;5115461;28;20066;-49
2021/12/18 10:54:38;;;;;;;15.55;8.48;;;6.60;99.90;;;;;;5115519;28;20055;-50
2021/12/18 10:57:04;;;;;;;23.85;10.48;;;6.50;99.90;;;;;;5115432;28;20423;-50
2021/12/18 10:59:34;;;;;;;22.08;10.13;;;6.50;99.90;;;;;;5115546;28;20027;-50
2021/12/18 11:02:05;;;;;;;19.63;10.20;;;6.40;99.90;;;;;;5115486;28;20549;-50
2021/12/18 11:04:38;;;;;;;28.75;11.98;;;6.50;99.90;;;;;;5115695;28;20077;-50
2021/12/18 11:07:28;;;;;;;25.40;11.20;;;6.50;99.90;;;;;;5115270;28;20024;-50
2021/12/18 11:10:21;;;;;;;31.42;11.98;;;6.30;99.90;;;;;;5115192;28;20020;-50
2021/12/18 11:15:32;;;;;;;16.83;9.95;;;6.20;99.90;;;;;;5094799;28;20027;-50
2021/12/18 11:17:58;;;;;;;29.67;12.73;;;6.10;99.90;;;;;;5106740;28;20031;-50
2021/12/18 11:20:25;;;;;;;33.30;15.63;;;6.00;99.90;;;;;;5115132;28;20023;-50
2021/12/18 11:22:52;;;;;;;34.75;15.60;;;5.80;99.90;;;;;;5115005;28;20036;-50
2021/12/18 11:25:22;;;;;;;34.05;11.55;;;5.70;99.90;;;;;;5115064;28;20027;-50
2021/12/18 11:27:49;;;;;;;27.85;13.30;;;5.60;99.90;;;;;;5114899;28;20063;-50
2021/12/18 11:30:17;;;;;;;31.05;14.82;;;5.50;99.90;;;;;;5115139;28;20023;-50
2021/12/18 11:32:46;;;;;;;41.13;15.77;;;5.40;99.90;;;;;;5115121;28;20405;-50
2021/12/18 11:35:17;;;;;;;41.45;17.02;;;5.40;99.90;;;;;;5114791;28;20546;-50
2021/12/18 11:38:07;;;;;;;54.83;22.60;;;5.30;99.90;;;;;;5114947;28;20038;-50
2021/12/18 11:40:36;;;;;;;44.72;16.80;;;5.20;99.90;;;;;;5114906;28;20041;-50
2021/12/18 11:43:07;;;;;;;36.22;17.55;;;5.10;99.90;;;;;;5114761;28;20362;-50
2021/12/18 11:45:35;;;;;;;35.90;16.13;;;5.10;99.90;;;;;;5115067;28;20036;-50
2021/12/18 11:48:03;;;;;;;40.55;16.60;;;5.10;99.90;;;;;;5114797;28;20055;-50
2021/12/18 11:50:32;;;;;;;52.13;16.33;;;5.00;99.90;;;;;;5120772;28;20020;-50
2021/12/18 11:53:19;;;;;;;29.23;13.63;;;5.00;99.90;;;;;;5121482;28;20486;-53
2021/12/18 11:55:51;;;;;;;26.90;11.73;;;5.00;99.90;;;;;;5121668;28;20077;-50
2021/12/18 11:58:28;;;;;;;25.67;11.48;;;4.90;99.90;;;;;;5121552;28;20051;-50
2021/12/18 12:00:59;;;;;;;26.15;13.75;;;4.90;99.90;;;;;;5121352;28;20476;-50
2021/12/18 12:03:43;;;;;;;37.72;18.35;;;4.90;99.90;;;;;;5121425;28;20027;-50
2021/12/18 12:06:30;;;;;;;61.33;28.60;;;4.90;99.90;;;;;;5121586;28;20560;-50
2021/12/18 12:09:28;;;;;;;46.28;23.98;;;4.90;99.90;;;;;;5121582;28;20106;-50
2021/12/18 12:12:07;;;;;;;50.33;25.10;;;4.80;99.90;;;;;;5116128;28;20028;-50
2021/12/18 12:14:41;;;;;;;39.13;20.23;;;4.80;99.90;;;;;;5100927;28;20115;-50
2021/12/18 12:17:10;;;;;;;35.75;18.30;;;4.90;99.90;;;;;;5105800;28;20024;-50
2021/12/18 12:19:36;;;;;;;34.53;17.63;;;4.90;99.90;;;;;;5121397;28;20027;-50
2021/12/18 12:22:05;;;;;;;34.38;14.90;;;4.90;99.90;;;;;;5121119;28;20023;-50
2021/12/18 12:24:52;;;;;;;29.60;14.35;;;5.00;99.90;;;;;;5121352;28;20153;-50
2021/12/18 12:27:39;;;;;;;25.20;13.95;;;4.90;99.90;;;;;;5121031;28;20110;-50
2021/12/18 12:30:10;;;;;;;31.67;14.50;;;4.90;99.90;;;;;;5121408;28;20027;-50
2021/12/18 12:32:37;;;;;;;34.25;15.45;;;4.90;99.90;;;;;;5121442;28;20034;-50
2021/12/18 12:35:06;;;;;;;40.92;19.30;;;4.90;99.90;;;;;;5121119;28;20431;-50
2021/12/18 12:37:44;;;;;;;35.30;17.15;;;4.90;99.90;;;;;;5121267;28;20419;-50
2021/12/18 12:40:15;;;;;;;39.28;19.38;;;5.00;99.90;;;;;;5121367;28;20027;-50
2021/12/18 12:43:01;;;;;;;;;;;5.00;99.90;;;;;;5121577;28;20047;-50
2021/12/18 12:45:39;;;;;;;38.17;16.05;;;5.00;99.90;;;;;;5120865;28;19930;-50
2021/12/18 12:48:05;;;;;;;34.28;14.57;;;5.10;99.90;;;;;;5120895;28;20035;-50
2021/12/18 12:50:32;;;;;;;37.88;16.15;;;5.10;99.90;;;;;;5121104;28;20032;-50
2021/12/18 12:53:02;;;;;;;32.88;15.38;;;5.00;99.90;;;;;;5120855;28;20050;-50
2021/12/18 12:55:47;;;;;;;28.23;14.33;;;5.10;99.90;;;;;;5121091;28;20032;-50
2021/12/18 12:58:19;;;;;;;26.48;13.65;;;5.10;99.90;;;;;;5121365;28;20256;-50
2021/12/18 13:00:48;;;;;;;25.70;13.35;;;5.20;99.90;;;;;;5119042;28;20055;-50
2021/12/18 13:03:18;;;;;;;26.52;13.77;;;5.10;99.90;;;;;;5117688;28;20106;-50
2021/12/18 13:05:53;;;;;;;28.83;16.27;;;5.10;99.90;;;;;;5117788;28;20042;-50
2021/12/18 13:08:20;;;;;;;28.55;15.30;;;5.10;99.90;;;;;;5117513;28;20039;-50
2021/12/18 13:10:49;;;;;;;25.85;15.02;;;5.10;99.90;;;;;;5099405;28;20027;-50
2021/12/18 13:13:18;;;;;;;24.10;13.07;;;5.10;99.90;;;;;;5100825;28;20020;-50
2021/12/18 13:15:49;;;;;;;34.58;14.25;;;5.20;99.90;;;;;;5097097;28;20077;-50
2021/12/18 13:18:16;;;;;;;28.35;12.82;;;5.30;99.90;;;;;;5111522;28;20038;-49
2021/12/18 13:21:02;;;;;;;35.95;15.52;;;5.30;99.90;;;;;;5117365;28;20038;-50
2021/12/18 13:23:59;;;;;;;23.90;11.80;;;5.30;99.90;;;;;;5117258;28;20104;-50
2021/12/18 13:26:27;;;;;;;40.72;15.70;;;5.20;99.90;;;;;;5117188;28;20055;-50
2021/12/18 13:29:03;;;;;;;40.05;16.75;;;5.20;99.90;;;;;;5117439;28;20034;-49
2021/12/18 13:31:34;;;;;;;35.28;16.52;;;5.20;99.90;;;;;;5117274;28;20418;-50
2021/12/18 13:34:08;;;;;;;40.38;17.90;;;5.30;99.90;;;;;;5117390;28;20425;-50
2021/12/18 13:36:38;;;;;;;50.35;20.42;;;5.20;99.90;;;;;;5117064;28;20023;-50
2021/12/18 13:39:13;;;;;;;65.60;27.20;;;5.20;99.90;;;;;;5117028;28;20495;-50